Terminal Aerodrome Forecast
Issued by NWS Wilmington, NC

Home | Current Version | Previous Version | Text Only | Print | Product List | Glossary On
Versions: 1 2 3 4 5 6 7 8 9 10 11 12 13 14 15 16 17 18 19 20 21 22 23 24 25 26 27 28 29 30
067
FTUS42 KILM 221133
TAFILM
TAF
KILM 221133Z 2212/2312 24007KT 6SM -RA SCT030 OVC090
      TEMPO 2212/2214 BKN025
     FM221400 24005KT 3SM RA BR SCT007 OVC060
      TEMPO 2214/2217 BKN007
     FM221700 19011KT P6SM VCSH SCT015 SCT060 BKN200
     FM222200 18012KT 4SM -SHRA BR SCT015 OVC025
     FM230000 17017G27KT 5SM TSRA BR BKN020CB OVC030
      TEMPO 2301/2305 VRB30G45KT 1SM +TSRA BR BKN007 OVC015CB
     FM230600 22010KT P6SM SCT030 BKN080=

USA.gov is the U.S. government's official web portal to all federal, state and local government web resources and services.